Merritt Island, Florida
Current Conditions -  °F | °C
As of 4:58 AM on Sunday 23 Nov 2014 (Local Time) from KCOF Reporting Station
Clear Clear  
Wind Chill: 73°   Ceiling: Unl
Heat Index: 73°   Visibility: 10mi
Dew Point: 71°   Wind: 18mph
Humidity: 94%   Direction: 140°SE
Pressure: 30.01"   Gusts: NA
Location:  28.36°N, 80.68°W
Report Text: KCOF 230958Z AUTO 14016KT 10SM CLR 23/22 A3001 RMK AO2 DZE0931 SLP167 P0002 T02270217
Loading
Personal Weather Stations






























Interactive Weather Map New forecast layout! Learn more

10-Day Weather Forecast

Advertisements
Track Severe Weather on mobile